Time;durP1;ratioP1;P1;durP2;ratioP2;P2;SDS_P1;SDS_P2;PMS_P1;PMS_P2;Temp;Humidity;BMP_temperature;BMP_pressure;BME280_temperature;BME280_humidity;BME280_pressure;Samples;Min_cycle;Max_cycle;Signal;HPM_P1;HPM_P2
2023/08/31 00:02:09;;;;;;;2.20;1.47;;;;;;;21.78;100.00;100428.97;5017946;28;20280;-57
2023/08/31 00:04:39;;;;;;;2.63;1.43;;;;;;;22.03;100.00;100430.13;5026540;28;20059;-56
2023/08/31 00:07:11;;;;;;;2.13;1.10;;;;;;;22.20;100.00;100424.66;5017421;28;20283;-58
2023/08/31 00:09:42;;;;;;;3.07;1.17;;;;;;;22.45;100.00;100423.13;5027607;28;20130;-57
2023/08/31 00:12:12;;;;;;;2.10;1.10;;;;;;;22.51;100.00;100423.56;5017142;28;20075;-58
2023/08/31 00:15:32;;;;;;;1.47;1.00;;;;;;;22.38;100.00;100423.50;5028200;28;20283;-56
2023/08/31 00:18:04;;;;;;;2.60;1.40;;;;;;;22.20;100.00;100429.97;4991512;28;20477;-58
2023/08/31 00:20:34;;;;;;;2.37;1.70;;;;;;;22.08;100.00;100436.03;5001788;28;20045;-57
2023/08/31 00:23:06;;;;;;;2.50;1.53;;;;;;;21.90;100.00;100428.22;5003067;28;20056;-57
2023/08/31 00:25:37;;;;;;;1.20;1.10;;;;;;;21.81;100.00;100434.09;5026252;28;20048;-59
2023/08/31 00:28:09;;;;;;;4.17;1.60;;;;;;;21.84;100.00;100428.59;5009753;28;20495;-58
2023/08/31 00:30:39;;;;;;;3.27;1.93;;;;;;;22.04;100.00;100423.84;5007977;28;20056;-58
2023/08/31 00:33:10;;;;;;;2.70;2.00;;;;;;;22.10;100.00;100426.16;4997661;28;20061;-58
2023/08/31 00:35:45;;;;;;;4.30;2.47;;;;;;;22.05;100.00;100428.25;5019901;28;20163;-55
2023/08/31 00:38:17;;;;;;;6.33;3.07;;;;;;;21.76;100.00;100394.47;5017487;28;20148;-56
2023/08/31 00:40:48;;;;;;;6.60;3.40;;;;;;;21.91;100.00;100423.75;5027234;28;20114;-56
2023/08/31 00:43:19;;;;;;;6.87;4.53;;;;;;;21.90;100.00;100404.28;5011329;28;20057;-55
2023/08/31 00:45:52;;;;;;;7.20;4.13;;;;;;;21.94;100.00;100395.16;5016231;28;20408;-56
2023/08/31 00:48:23;;;;;;;7.23;4.40;;;;;;;22.01;100.00;100394.78;5002121;28;20081;-54
2023/08/31 00:50:54;;;;;;;8.70;5.00;;;;;;;22.10;100.00;100407.53;5019303;28;20389;-57
2023/08/31 00:53:26;;;;;;;9.90;5.93;;;;;;;22.08;100.00;100390.78;5013820;28;20414;-57
2023/08/31 00:55:57;;;;;;;11.50;6.33;;;;;;;22.25;100.00;100395.94;5023556;28;20064;-57
2023/08/31 00:58:27;;;;;;;12.27;5.43;;;;;;;22.35;100.00;100402.38;5026826;28;20059;-57
2023/08/31 01:01:06;;;;;;;11.87;5.60;;;;;;;22.49;100.00;100403.31;5022053;28;20033;-56
2023/08/31 01:03:45;;;;;;;8.20;4.78;;;;;;;22.57;100.00;100395.72;5026243;28;20044;-57
2023/08/31 01:06:29;;;;;;;11.53;5.40;;;;;;;22.66;100.00;100372.94;5016732;28;20388;-58
2023/08/31 01:09:10;;;;;;;9.50;6.10;;;;;;;22.75;100.00;100389.19;5015905;28;20045;-58
2023/08/31 01:11:54;;;;;;;9.07;5.30;;;;;;;22.79;100.00;100384.53;5026188;28;20082;-56
2023/08/31 01:14:29;;;;;;;9.97;4.97;;;;;;;22.75;100.00;100389.19;5015638;28;20452;-57
2023/08/31 01:17:01;;;;;;;10.13;4.80;;;;;;;22.63;100.00;100381.97;5015492;28;20041;-57
2023/08/31 01:19:44;;;;;;;11.30;4.77;;;;;;;22.66;100.00;100368.47;5025839;28;20049;-57
2023/08/31 01:22:23;;;;;;;10.23;4.90;;;;;;;22.93;100.00;100386.25;5016104;28;20468;-58
2023/08/31 01:24:55;;;;;;;;;;;;;;;22.97;100.00;100393.13;5022626;28;20045;-57
2023/08/31 01:27:26;;;;;;;11.27;4.30;;;;;;;22.99;100.00;100385.91;5011563;28;20359;-57
2023/08/31 01:29:57;;;;;;;7.63;3.93;;;;;;;23.03;100.00;100379.41;5021515;28;20114;-57
2023/08/31 01:32:28;;;;;;;10.83;4.17;;;;;;;23.15;100.00;100377.72;5025257;28;20056;-57
2023/08/31 01:35:01;;;;;;;7.27;3.73;;;;;;;23.36;100.00;100383.41;5015848;28;20132;-56
2023/08/31 01:37:37;;;;;;;6.53;3.80;;;;;;;23.49;100.00;100389.66;5026029;28;20044;-58
2023/08/31 01:40:15;;;;;;;8.10;4.23;;;;;;;23.56;100.00;100388.25;5015669;28;20063;-58
2023/08/31 01:42:48;;;;;;;5.28;3.92;;;;;;;23.56;100.00;100380.25;5025178;28;20128;-56
2023/08/31 01:45:22;;;;;;;7.57;4.03;;;;;;;23.57;100.00;100376.63;5015846;28;20082;-59
2023/08/31 01:47:52;;;;;;;7.67;4.13;;;;;;;23.58;100.00;100381.00;5024998;28;20064;-56
2023/08/31 01:50:23;;;;;;;6.70;4.37;;;;;;;23.60;100.00;100392.41;5014746;28;20044;-57
2023/08/31 01:52:55;;;;;;;9.50;4.60;;;;;;;23.62;100.00;100385.16;5025306;28;20049;-56
2023/08/31 01:55:27;;;;;;;10.80;4.60;;;;;;;23.62;100.00;100387.84;5015176;28;20054;-56
2023/08/31 01:57:57;;;;;;;9.83;5.10;;;;;;;23.38;100.00;100349.50;5018291;28;20048;-57
2023/08/31 02:00:28;;;;;;;12.73;5.53;;;;;;;23.46;100.00;100389.84;5017789;28;20139;-58
2023/08/31 02:02:59;;;;;;;14.60;5.97;;;;;;;23.44;100.00;100381.97;5012257;28;20391;-56
2023/08/31 02:05:29;;;;;;;15.67;7.07;;;;;;;23.38;100.00;100384.16;5009251;28;20052;-58
2023/08/31 02:08:00;;;;;;;10.17;6.13;;;;;;;23.25;100.00;100381.50;4995563;28;20136;-59
2023/08/31 02:10:32;;;;;;;13.97;8.10;;;;;;;23.16;100.00;100398.94;5005279;28;20045;-57
2023/08/31 02:13:03;;;;;;;14.87;7.03;;;;;;;23.05;100.00;100396.16;4995849;28;20500;-57
2023/08/31 02:15:32;;;;;;;14.77;6.50;;;;;;;22.97;100.00;100382.47;5004909;28;20384;-58
2023/08/31 02:18:04;;;;;;;13.27;8.20;;;;;;;22.99;100.00;100385.91;4994913;28;20076;-56
2023/08/31 02:20:35;;;;;;;17.53;7.20;;;;;;;22.99;100.00;100385.91;5004736;28;20045;-56
2023/08/31 02:23:06;;;;;;;13.37;6.60;;;;;;;23.00;100.00;100371.63;5016420;28;20056;-59
2023/08/31 02:25:38;;;;;;;20.50;8.50;;;;;;;23.08;100.00;100369.28;5022457;28;20399;-56
2023/08/31 02:28:09;;;;;;;18.97;9.30;;;;;;;23.09;100.00;100386.13;4994536;28;20481;-57
2023/08/31 02:30:39;;;;;;;17.73;8.77;;;;;;;23.04;100.00;100354.47;5012108;28;20472;-59
2023/08/31 02:33:10;;;;;;;20.27;8.67;;;;;;;23.24;100.00;100369.97;4996483;28;20491;-58
2023/08/31 02:35:42;;;;;;;16.20;8.50;;;;;;;23.23;100.00;100373.59;4998979;28;20058;-59
2023/08/31 02:38:12;;;;;;;15.87;9.23;;;;;;;23.25;100.00;100339.69;4987457;28;20073;-58
2023/08/31 02:40:47;;;;;;;17.73;8.77;;;;;;;23.64;100.00;100367.25;5003680;28;20045;-58
2023/08/31 02:43:18;;;;;;;16.03;8.03;;;;;;;23.86;100.00;100347.09;5021458;28;20050;-56
2023/08/31 02:45:48;;;;;;;17.00;7.73;;;;;;;24.01;100.00;100354.03;5031217;28;20409;-56
2023/08/31 02:48:19;;;;;;;14.23;7.53;;;;;;;24.19;100.00;100353.66;5021589;28;20048;-56
2023/08/31 02:50:49;;;;;;;13.20;7.53;;;;;;;24.33;100.00;100358.84;5031309;28;20075;-58
2023/08/31 02:53:20;;;;;;;16.80;7.50;;;;;;;24.46;100.00;100365.06;5018618;28;20051;-57
2023/08/31 02:55:52;;;;;;;13.27;7.00;;;;;;;24.62;100.00;100361.25;5031084;28;20041;-57
2023/08/31 02:58:22;;;;;;;18.27;8.37;;;;;;;24.67;100.00;100370.66;5010575;28;20140;-58
2023/08/31 03:00:53;;;;;;;15.10;7.73;;;;;;;24.72;100.00;100360.47;5011418;28;20065;-56
2023/08/31 03:03:24;;;;;;;15.80;7.87;;;;;;;24.78;100.00;100356.47;4988905;28;20061;-58
2023/08/31 03:05:57;;;;;;;16.50;7.57;;;;;;;24.59;100.00;100313.38;5036715;28;20131;-59
2023/08/31 03:08:28;;;;;;;13.43;7.67;;;;;;;24.85;100.00;100349.72;5009769;28;20045;-58
2023/08/31 03:11:00;;;;;;;13.80;7.77;;;;;;;24.95;100.00;100353.41;5037021;28;20124;-59
2023/08/31 03:13:32;;;;;;;13.00;7.20;;;;;;;24.54;100.00;100266.50;5060716;28;20088;-58
2023/08/31 03:16:03;;;;;;;13.53;7.40;;;;;;;25.09;100.00;100340.84;5001633;28;20037;-56
2023/08/31 03:18:33;;;;;;;18.37;7.87;;;;;;;25.17;100.00;100341.13;5021156;28;20045;-59
2023/08/31 03:21:04;;;;;;;12.37;7.30;;;;;;;25.26;100.00;100332.41;5021690;28;20040;-57
2023/08/31 03:23:34;;;;;;;12.80;7.37;;;;;;;25.30;100.00;100341.88;5015769;28;20069;-57
2023/08/31 03:26:11;;;;;;;11.77;7.87;;;;;;;25.31;100.00;100340.94;5004307;28;20059;-56
2023/08/31 03:28:41;;;;;;;16.83;8.00;;;;;;;25.26;100.00;100337.75;5011877;28;20187;-56
2023/08/31 03:31:12;;;;;;;14.50;7.43;;;;;;;25.16;100.00;100342.03;5002337;28;20049;-58
2023/08/31 03:33:42;;;;;;;11.87;7.53;;;;;;;25.11;100.00;100328.16;5009360;28;20423;-57
2023/08/31 03:36:13;;;;;;;12.17;7.37;;;;;;;25.18;100.00;100335.63;4998418;28;20050;-56
2023/08/31 03:38:43;;;;;;;11.97;7.33;;;;;;;25.23;100.00;100337.97;5008214;28;20491;-58
2023/08/31 03:41:15;;;;;;;12.43;6.83;;;;;;;25.30;100.00;100328.50;4998584;28;20045;-56
2023/08/31 03:43:46;;;;;;;14.20;7.40;;;;;;;25.39;100.00;100327.81;5008078;28;20073;-55
2023/08/31 03:46:16;;;;;;;16.20;7.33;;;;;;;25.44;100.00;100332.81;4998531;28;20057;-56
2023/08/31 03:48:47;;;;;;;12.17;6.43;;;;;;;25.36;100.00;100322.69;5008288;28;20088;-58
2023/08/31 03:51:17;;;;;;;12.03;7.40;;;;;;;25.32;100.00;100326.56;4998832;28;20060;-57
2023/08/31 03:53:48;;;;;;;17.23;9.00;;;;;;;25.19;100.00;100320.47;5008362;28;20487;-57
2023/08/31 03:56:20;;;;;;;14.03;7.80;;;;;;;25.05;100.00;100312.63;4998381;28;20052;-56
2023/08/31 03:58:50;;;;;;;12.83;7.97;;;;;;;25.00;100.00;100318.31;5007822;28;20099;-58
2023/08/31 04:01:21;;;;;;;12.83;8.37;;;;;;;25.09;100.00;100311.44;4998552;28;20087;-56
2023/08/31 04:03:52;;;;;;;11.67;7.77;;;;;;;25.20;100.00;100295.44;5007959;28;20045;-58
2023/08/31 04:06:22;;;;;;;11.53;7.17;;;;;;;25.40;100.00;100292.06;4997443;28;20144;-57
2023/08/31 04:08:53;;;;;;;14.20;7.27;;;;;;;25.48;100.00;100277.22;5007911;28;20459;-58
2023/08/31 04:11:26;;;;;;;15.20;7.00;;;;;;;25.54;100.00;100274.09;4997130;28;20069;-58
2023/08/31 04:13:57;;;;;;;14.03;7.37;;;;;;;25.61;100.00;100272.63;5005988;28;20049;-58
2023/08/31 04:16:27;;;;;;;9.93;7.17;;;;;;;25.64;100.00;100276.88;5008223;28;20124;-59
2023/08/31 04:18:58;;;;;;;13.10;8.07;;;;;;;25.64;100.00;100280.41;4999474;28;20366;-59
2023/08/31 04:21:29;;;;;;;12.80;7.47;;;;;;;25.60;100.00;100286.97;5007247;28;20135;-59
2023/08/31 04:24:00;;;;;;;10.80;7.37;;;;;;;25.50;100.00;100283.31;5015651;28;20467;-58
2023/08/31 04:26:32;;;;;;;10.67;6.73;;;;;;;25.43;100.00;100284.75;5010714;28;20132;-57
2023/08/31 04:29:05;;;;;;;9.67;6.50;;;;;;;25.39;100.00;100263.63;4996961;28;20049;-56
2023/08/31 04:31:35;;;;;;;10.23;6.67;;;;;;;25.49;100.00;100289.66;5007792;28;20053;-58
2023/08/31 04:34:07;;;;;;;9.87;6.27;;;;;;;25.44;100.00;100281.13;4997675;28;20061;-59
2023/08/31 04:36:37;;;;;;;9.30;6.33;;;;;;;25.28;100.00;100279.63;5007092;28;20061;-57
2023/08/31 04:39:08;;;;;;;15.27;7.63;;;;;;;25.00;100.00;100262.16;4996856;28;20089;-57
2023/08/31 04:41:40;;;;;;;13.30;7.03;;;;;;;24.97;100.00;100284.66;5006518;28;20072;-58
2023/08/31 04:44:11;;;;;;;12.67;6.63;;;;;;;24.83;100.00;100284.84;5006108;28;20136;-58
2023/08/31 04:46:41;;;;;;;15.87;7.43;;;;;;;24.73;100.00;100286.50;5012276;28;20041;-58
2023/08/31 04:49:12;;;;;;;13.90;7.20;;;;;;;24.59;100.00;100281.31;4996866;28;20049;-57
2023/08/31 04:51:42;;;;;;;19.43;11.80;;;;;;;24.40;100.00;100285.34;5006606;28;20048;-57
2023/08/31 04:54:12;;;;;;;13.03;7.53;;;;;;;24.29;100.00;100283.47;4996359;28;20144;-60
2023/08/31 04:56:45;;;;;;;15.60;8.70;;;;;;;24.19;100.00;100281.56;5006729;28;20049;-57
2023/08/31 04:59:15;;;;;;;13.73;8.63;;;;;;;24.13;100.00;100292.72;4996733;28;20045;-57
2023/08/31 05:01:46;;;;;;;11.87;8.03;;;;;;;24.03;100.00;100277.34;5006607;28;20393;-59
2023/08/31 05:04:17;;;;;;;10.40;7.70;;;;;;;24.02;100.00;100275.66;4996857;28;21231;-58
2023/08/31 05:06:47;;;;;;;15.53;7.20;;;;;;;24.00;100.00;100266.91;5006616;28;20047;-58
2023/08/31 05:09:18;;;;;;;13.97;7.60;;;;;;;24.03;100.00;100239.97;4996582;28;20137;-60
2023/08/31 05:11:51;;;;;;;14.17;7.30;;;;;;;24.21;100.00;100242.25;5006014;28;20460;-60
2023/08/31 05:14:21;;;;;;;10.40;6.87;;;;;;;24.49;100.00;100231.28;4996175;28;20107;-60
2023/08/31 05:16:52;;;;;;;11.90;6.73;;;;;;;24.94;100.00;100228.75;5006057;28;20044;-58
2023/08/31 05:19:22;;;;;;;8.37;5.87;;;;;;;25.33;100.00;100210.59;4996596;28;20060;-55
2023/08/31 05:21:54;;;;;;;11.47;6.13;;;;;;;25.68;100.00;100208.75;5007392;28;20546;-60
2023/08/31 05:24:24;;;;;;;14.13;5.93;;;;;;;25.94;100.00;100220.06;5015024;28;20140;-58
2023/08/31 05:26:56;;;;;;;8.50;5.73;;;;;;;26.02;100.00;100214.94;5023019;28;20059;-59
2023/08/31 05:29:28;;;;;;;8.77;5.57;;;;;;;26.15;100.00;100218.28;5015748;28;20047;-59
2023/08/31 05:31:58;;;;;;;10.23;5.60;;;;;;;26.09;100.00;100218.81;5015621;28;20399;-56
2023/08/31 05:34:32;;;;;;;10.00;5.97;;;;;;;25.97;100.00;100217.16;5026178;28;20048;-57
2023/08/31 05:37:05;;;;;;;10.07;6.00;;;;;;;25.55;100.00;100182.13;5015732;28;20056;-57
2023/08/31 05:39:36;;;;;;;10.90;7.90;;;;;;;25.61;100.00;100219.13;5025478;28;20059;-59
2023/08/31 05:42:08;;;;;;;9.13;5.93;;;;;;;25.46;100.00;100214.97;5015567;28;20045;-59
2023/08/31 05:44:39;;;;;;;9.30;5.40;;;;;;;25.21;100.00;100206.22;5025185;28;20055;-57
2023/08/31 05:47:09;;;;;;;9.33;5.97;;;;;;;25.11;100.00;100215.88;5015122;28;20052;-58
2023/08/31 05:49:40;;;;;;;14.27;5.97;;;;;;;24.97;100.00;100209.78;5025521;28;20048;-60
2023/08/31 05:52:10;;;;;;;10.80;5.87;;;;;;;24.85;100.00;100216.09;5015879;28;20143;-57
2023/08/31 05:54:41;;;;;;;8.70;6.27;;;;;;;24.77;100.00;100213.16;5025537;28;20073;-57
2023/08/31 05:57:13;;;;;;;10.53;5.43;;;;;;;24.67;100.00;100209.50;5014782;28;20099;-60
2023/08/31 05:59:43;;;;;;;10.97;6.10;;;;;;;24.59;100.00;100217.22;5025125;28;20045;-59
2023/08/31 06:02:14;;;;;;;11.97;6.40;;;;;;;24.45;100.00;100208.44;5015393;28;20169;-58
2023/08/31 06:04:44;;;;;;;14.57;6.10;;;;;;;24.30;100.00;100209.56;5025659;28;20549;-59
2023/08/31 06:07:15;;;;;;;10.70;6.57;;;;;;;24.10;100.00;100214.53;4988464;28;20136;-57
2023/08/31 06:09:45;;;;;;;10.33;6.70;;;;;;;24.03;100.00;100202.63;5005728;28;20057;-59
2023/08/31 06:12:17;;;;;;;13.90;6.47;;;;;;;24.03;100.00;100197.28;5001473;28;20149;-58
2023/08/31 06:14:48;;;;;;;15.53;6.70;;;;;;;24.16;100.00;100191.03;5010978;28;20128;-58
2023/08/31 06:17:19;;;;;;;15.00;7.00;;;;;;;24.08;100.00;100147.06;5015967;28;20055;-59
2023/08/31 06:19:49;;;;;;;11.43;6.90;;;;;;;24.46;100.00;100183.44;5020172;28;20044;-61
2023/08/31 06:22:22;;;;;;;9.53;6.20;;;;;;;24.59;100.00;100194.06;5011921;28;20462;-60
2023/08/31 06:24:53;;;;;;;9.83;6.70;;;;;;;24.66;100.00;100179.25;5020919;28;20399;-60
2023/08/31 06:27:25;;;;;;;12.77;6.10;;;;;;;24.68;100.00;100165.75;5010894;28;20081;-60
2023/08/31 06:29:56;;;;;;;12.83;6.87;;;;;;;24.65;100.00;100163.34;5021550;28;20063;-60
2023/08/31 06:32:27;;;;;;;10.47;6.20;;;;;;;24.61;100.00;100149.38;4991257;28;20061;-60
2023/08/31 06:34:58;;;;;;;14.57;6.73;;;;;;;24.58;100.00;100148.75;4992500;28;20061;-60
2023/08/31 06:37:29;;;;;;;12.93;7.73;;;;;;;24.61;100.00;100136.03;5001734;28;20048;-60
2023/08/31 06:40:00;;;;;;;13.33;6.63;;;;;;;24.74;100.00;100135.91;4991538;28;20566;-61
2023/08/31 06:42:33;;;;;;;15.10;6.43;;;;;;;24.84;100.00;100126.22;5005642;28;20129;-61
2023/08/31 06:45:05;;;;;;;10.87;6.33;;;;;;;24.97;100.00;100140.31;5011222;28;20444;-60
2023/08/31 06:47:36;;;;;;;9.43;5.83;;;;;;;25.03;100.00;100132.78;5020483;28;20084;-60
2023/08/31 06:50:08;;;;;;;10.23;6.30;;;;;;;24.80;100.00;100116.72;5010804;28;20056;-61
2023/08/31 06:52:40;;;;;;;13.50;6.63;;;;;;;24.87;100.00;100144.66;5021202;28;20352;-59
2023/08/31 06:55:12;;;;;;;14.13;6.20;;;;;;;24.79;100.00;100147.09;5010462;28;20073;-60
2023/08/31 06:57:44;;;;;;;12.97;5.70;;;;;;;24.47;100.00;100105.00;5021002;28;20061;-60
2023/08/31 07:00:16;;;;;;;11.43;5.80;;;;;;;24.48;100.00;100154.78;5010905;28;20465;-59
2023/08/31 07:02:46;;;;;;;14.87;6.07;;;;;;;24.32;100.00;100159.56;5020031;28;20475;-59
2023/08/31 07:05:17;;;;;;;11.00;6.73;;;;;;;24.17;100.00;100155.38;5009850;28;20541;-57
2023/08/31 07:07:47;;;;;;;13.73;6.50;;;;;;;23.98;100.00;100167.41;5020817;28;20088;-60
2023/08/31 07:10:18;;;;;;;11.37;6.43;;;;;;;23.72;100.00;100150.63;5014583;28;20237;-60
2023/08/31 07:12:50;;;;;;;13.80;6.27;;;;;;;23.57;100.00;100165.94;5024382;28;20049;-61
2023/08/31 07:15:21;;;;;;;12.53;6.37;;;;;;;23.45;100.00;100172.13;5014380;28;20376;-59
2023/08/31 07:17:51;;;;;;;14.67;6.87;;;;;;;23.38;100.00;100152.22;5024124;28;20048;-60
2023/08/31 07:20:22;;;;;;;10.60;6.80;;;;;;;23.32;100.00;100142.84;5000989;28;20045;-59
2023/08/31 07:22:53;;;;;;;12.10;6.80;;;;;;;23.34;100.00;100161.38;5010822;28;20045;-59
2023/08/31 07:25:23;;;;;;;12.20;6.67;;;;;;;23.23;100.00;100152.31;4991459;28;20396;-60
2023/08/31 07:27:55;;;;;;;13.03;7.37;;;;;;;23.29;100.00;100174.19;5004222;28;20056;-60
2023/08/31 07:30:26;;;;;;;15.20;6.50;;;;;;;23.24;100.00;100151.38;5013289;28;20053;-59
2023/08/31 07:32:57;;;;;;;10.53;6.67;;;;;;;23.21;100.00;100167.59;5021992;28;20382;-59
2023/08/31 07:35:28;;;;;;;14.47;7.60;;;;;;;23.13;100.00;100159.28;5023716;28;20056;-58
2023/08/31 07:37:58;;;;;;;10.77;6.67;;;;;;;23.01;100.00;100146.81;5015352;28;20051;-58
2023/08/31 07:40:29;;;;;;;16.37;7.53;;;;;;;22.99;100.00;100156.75;5024426;28;20185;-58
2023/08/31 07:43:02;;;;;;;12.13;6.60;;;;;;;22.91;100.00;100148.38;5014156;28;20080;-59
2023/08/31 07:45:32;;;;;;;11.47;7.13;;;;;;;22.78;100.00;100143.06;5023213;28;20059;-58
2023/08/31 07:48:04;;;;;;;15.07;6.63;;;;;;;22.61;100.00;100125.56;5013187;28;20053;-59
2023/08/31 07:50:35;;;;;;;12.40;6.70;;;;;;;22.58;100.00;100131.09;5022880;28;20048;-57
2023/08/31 07:53:06;;;;;;;12.53;7.10;;;;;;;22.54;100.00;100124.28;5013582;28;20085;-59
2023/08/31 07:55:36;;;;;;;13.63;7.80;;;;;;;22.51;100.00;100124.50;5024537;28;20084;-58
2023/08/31 07:58:09;;;;;;;12.70;8.27;;;;;;;22.51;100.00;100129.81;5011908;28;20049;-58
2023/08/31 08:00:39;;;;;;;14.43;7.53;;;;;;;22.48;100.00;100136.22;5022627;28;20128;-58
2023/08/31 08:03:10;;;;;;;13.57;8.10;;;;;;;22.40;100.00;100128.75;5012952;28;20075;-57
2023/08/31 08:05:42;;;;;;;10.83;7.23;;;;;;;22.37;100.00;100126.28;5023315;28;20136;-59
2023/08/31 08:08:13;;;;;;;13.87;8.33;;;;;;;22.17;100.00;100097.50;5013011;28;20052;-57
2023/08/31 08:10:44;;;;;;;21.57;7.93;;;;;;;22.26;100.00;100118.16;5023053;28;20092;-58
2023/08/31 08:13:16;;;;;;;14.40;7.47;;;;;;;22.29;100.00;100120.66;4992881;28;20172;-59
2023/08/31 08:15:48;;;;;;;14.90;7.90;;;;;;;22.24;100.00;100112.13;5003773;28;20144;-60
2023/08/31 08:18:18;;;;;;;14.10;7.73;;;;;;;22.23;100.00;100110.41;4993392;28;20473;-59
2023/08/31 08:20:50;;;;;;;13.17;7.60;;;;;;;22.23;100.00;100105.06;5001820;28;20064;-59
2023/08/31 08:23:21;;;;;;;19.73;7.83;;;;;;;22.18;100.00;100091.19;4993188;28;20527;-59
2023/08/31 08:25:52;;;;;;;14.17;7.53;;;;;;;22.13;100.00;100093.31;5018495;28;20156;-59
2023/08/31 08:28:24;;;;;;;14.50;7.63;;;;;;;22.08;100.00;100087.44;5013695;28;20084;-59
2023/08/31 08:30:55;;;;;;;12.70;7.23;;;;;;;22.07;100.00;100093.75;5022593;28;20044;-58
2023/08/31 08:33:25;;;;;;;14.70;7.10;;;;;;;22.04;100.00;100096.59;5011626;28;20123;-58
2023/08/31 08:35:58;;;;;;;12.03;7.33;;;;;;;21.96;100.00;100108.59;5021489;28;20060;-58
2023/08/31 08:38:29;;;;;;;14.43;7.40;;;;;;;21.90;100.00;100098.38;5022984;28;20068;-59
2023/08/31 08:40:59;;;;;;;15.37;7.60;;;;;;;21.87;100.00;100097.72;5012149;28;20102;-58
2023/08/31 08:43:32;;;;;;;17.53;7.80;;;;;;;21.82;100.00;100106.00;5023144;28;20406;-60
2023/08/31 08:46:07;;;;;;;14.03;8.03;;;;;;;21.76;100.00;100101.06;5012559;28;21125;-59
2023/08/31 08:48:41;;;;;;;14.30;7.23;;;;;;;21.61;100.00;100081.66;5022605;28;20541;-59
2023/08/31 08:51:12;;;;;;;12.30;7.63;;;;;;;21.67;100.00;100093.72;5010982;28;20061;-59
2023/08/31 08:53:45;;;;;;;13.87;7.00;;;;;;;21.64;100.00;100083.25;5022012;28;20090;-59
2023/08/31 08:56:19;;;;;;;12.60;7.63;;;;;;;21.61;100.00;100072.81;5010116;28;20050;-60
2023/08/31 08:58:51;;;;;;;15.33;7.40;;;;;;;21.60;100.00;100063.16;5022136;28;20080;-58
2023/08/31 09:01:29;;;;;;;15.67;8.17;;;;;;;21.58;100.00;100073.03;5012082;28;20129;-60
2023/08/31 09:04:16;;;;;;;15.33;7.80;;;;;;;21.50;100.00;100058.44;5012285;28;20060;-60
2023/08/31 09:06:47;;;;;;;14.47;7.87;;;;;;;21.45;100.00;100057.88;5022022;28;20379;-57
2023/08/31 09:09:56;;;;;;;14.90;8.10;;;;;;;21.50;100.00;100061.09;5012279;28;20057;-58
2023/08/31 09:12:42;;;;;;;15.07;8.00;;;;;;;21.44;100.00;100048.22;4991780;28;20049;-58
2023/08/31 11:00:52;;;;;;;19.00;9.73;;;;;;;20.79;100.00;100037.25;5000192;28;20299;-58
2023/08/31 11:03:23;;;;;;;18.30;9.73;;;;;;;20.80;100.00;100046.97;5003900;28;20045;-58
2023/08/31 11:05:54;;;;;;;18.93;10.30;;;;;;;20.70;100.00;100024.59;5017828;28;20603;-59
2023/08/31 11:08:28;;;;;;;17.23;10.10;;;;;;;20.80;100.00;100031.88;5011779;28;20661;-58
2023/08/31 11:10:58;;;;;;;20.27;9.97;;;;;;;20.79;100.00;100030.19;5026966;28;20278;-58
2023/08/31 11:13:34;;;;;;;14.90;9.73;;;;;;;20.80;100.00;100031.03;5023495;28;20312;-58
2023/08/31 11:16:45;;;;;;;14.73;9.07;;;;;;;20.83;100.00;100036.97;4989406;28;20274;-58
2023/08/31 11:19:34;;;;;;;16.43;9.83;;;;;;;20.84;100.00;100043.16;4995459;28;20280;-58
2023/08/31 11:22:09;;;;;;;19.50;10.80;;;;;;;20.85;100.00;100036.91;4995617;28;20288;-57
2023/08/31 11:24:46;;;;;;;21.75;9.85;;;;;;;20.82;100.00;100037.09;5005280;28;20736;-58
2023/08/31 11:27:21;;;;;;;26.53;10.73;;;;;;;20.76;100.00;99987.88;4995913;28;20057;-59
2023/08/31 11:29:54;;;;;;;19.53;10.10;;;;;;;20.75;100.00;100001.25;5024767;28;20595;-58
2023/08/31 11:32:29;;;;;;;18.07;9.03;;;;;;;20.75;100.00;99995.94;5014097;28;20284;-59
2023/08/31 11:35:03;;;;;;;13.00;9.10;;;;;;;20.55;100.00;99978.63;5012708;28;20291;-60
2023/08/31 11:37:36;;;;;;;15.43;9.87;;;;;;;20.80;100.00;100012.44;5023808;28;20268;-58
2023/08/31 11:40:08;;;;;;;19.73;8.43;;;;;;;20.78;100.00;99987.78;5013710;28;21154;-59
2023/08/31 11:42:40;;;;;;;13.10;7.87;;;;;;;20.89;100.00;99998.56;5023401;28;20287;-57
2023/08/31 11:45:14;;;;;;;12.40;6.77;;;;;;;20.95;100.00;100008.81;5014929;28;20742;-59
2023/08/31 11:47:49;;;;;;;8.27;5.90;;;;;;;21.02;100.00;100015.44;5023477;28;20357;-59
2023/08/31 11:50:23;;;;;;;7.37;6.00;;;;;;;21.08;100.00;100004.41;5012892;28;20131;-58
2023/08/31 11:52:55;;;;;;;8.70;4.70;;;;;;;21.11;100.00;100022.81;5023526;28;20287;-57
2023/08/31 11:55:33;;;;;;;8.27;4.03;;;;;;;21.10;100.00;100013.13;4992395;28;20315;-58
2023/08/31 11:58:10;;;;;;;5.17;3.80;;;;;;;21.11;100.00;100020.16;4986780;28;20298;-60
2023/08/31 12:00:46;;;;;;;8.27;4.13;;;;;;;21.11;100.00;100004.19;5023818;28;20328;-58
2023/08/31 12:03:19;;;;;;;8.63;4.80;;;;;;;20.84;100.00;99968.78;5014490;28;20091;-58
2023/08/31 12:05:58;;;;;;;9.53;4.57;;;;;;;21.08;100.00;100009.72;5015984;28;20291;-58
2023/08/31 12:08:30;;;;;;;7.77;4.00;;;;;;;20.82;100.00;99960.94;5022272;28;20284;-59
2023/08/31 12:11:03;;;;;;;10.63;3.60;;;;;;;21.07;100.00;99980.63;5014229;28;20272;-59
2023/08/31 12:13:35;;;;;;;4.73;3.17;;;;;;;20.89;100.00;99942.78;5023113;28;20284;-58
2023/08/31 12:16:13;;;;;;;7.17;3.17;;;;;;;21.09;100.00;99974.25;5013483;28;20730;-59
2023/08/31 12:18:47;;;;;;;4.55;3.05;;;;;;;21.08;100.00;99942.47;5022415;28;20271;-58
2023/08/31 12:21:22;;;;;;;3.17;2.40;;;;;;;21.07;100.00;99933.66;5014502;28;20642;-57
2023/08/31 12:23:53;;;;;;;4.97;2.60;;;;;;;21.29;100.00;99942.84;5023861;28;20884;-60
2023/08/31 12:26:25;;;;;;;3.83;2.30;;;;;;;21.32;100.00;99926.72;4993467;28;20350;-58
2023/08/31 12:28:57;;;;;;;3.13;2.20;;;;;;;21.42;100.00;99930.50;5003348;28;20315;-59
2023/08/31 12:31:28;;;;;;;3.33;2.07;;;;;;;21.46;100.00;99925.81;5012529;28;20271;-58
2023/08/31 12:34:04;;;;;;;2.60;2.03;;;;;;;21.51;100.00;99921.88;5013872;28;20283;-58
2023/08/31 12:36:38;;;;;;;4.57;2.20;;;;;;;21.16;100.00;99856.94;5023125;28;20287;-58
2023/08/31 12:39:10;;;;;;;2.63;1.97;;;;;;;21.60;100.00;99924.91;5013383;28;20045;-58
2023/08/31 12:41:43;;;;;;;3.50;1.63;;;;;;;21.39;100.00;99888.19;5023627;28;20084;-59
2023/08/31 12:44:15;;;;;;;1.97;1.57;;;;;;;21.66;100.00;99920.00;5012364;28;20045;-59
2023/08/31 12:46:46;;;;;;;3.07;1.97;;;;;;;21.69;100.00;99919.81;5022850;28;20033;-58
2023/08/31 12:49:20;;;;;;;2.40;1.60;;;;;;;21.73;100.00;99920.44;5012433;28;20283;-59
2023/08/31 12:51:51;;;;;;;4.50;1.57;;;;;;;21.78;100.00;99918.31;5022615;28;20123;-58
2023/08/31 12:54:23;;;;;;;4.20;2.00;;;;;;;21.78;100.00;99907.69;4991961;28;20049;-58
2023/08/31 12:56:54;;;;;;;2.60;1.57;;;;;;;21.78;100.00;99913.00;5003475;28;20069;-58
2023/08/31 12:59:26;;;;;;;5.17;1.70;;;;;;;21.74;100.00;99903.53;4995410;28;20128;-59
2023/08/31 13:01:57;;;;;;;2.90;2.37;;;;;;;21.75;100.00;99913.22;5017477;28;20076;-57
2023/08/31 13:04:31;;;;;;;3.97;2.67;;;;;;;21.65;100.00;99901.50;5021848;28;20048;-58
2023/08/31 13:07:02;;;;;;;3.67;2.57;;;;;;;21.64;100.00;99907.78;5011968;28;20136;-58
2023/08/31 13:09:34;;;;;;;4.53;2.90;;;;;;;21.60;100.00;99908.94;5022221;28;20063;-59
2023/08/31 13:12:06;;;;;;;3.90;2.70;;;;;;;21.60;100.00;99903.63;5013105;28;20572;-58
2023/08/31 13:14:39;;;;;;;3.17;2.23;;;;;;;21.61;100.00;99900.84;5021942;28;20049;-58
2023/08/31 13:17:11;;;;;;;4.33;2.00;;;;;;;21.64;100.00;99898.00;5013494;28;20045;-57
2023/08/31 13:19:45;;;;;;;3.43;2.07;;;;;;;21.74;100.00;99895.53;5019194;28;20049;-56
2023/08/31 13:22:16;;;;;;;4.57;2.60;;;;;;;21.81;100.00;99880.88;5011816;28;20053;-58